createdAt,value
2017-05-04T00:00:20.293Z,20.32
2017-05-04T00:02:47.048Z,23.10
2017-05-04T00:05:14.086Z,21.33
2017-05-04T00:07:40.846Z,21.30
2017-05-04T00:10:07.612Z,22.72
2017-05-04T00:12:35.310Z,20.23
2017-05-04T00:15:02.078Z,21.47
2017-05-04T00:17:28.833Z,19.90
2017-05-04T00:19:56.490Z,20.68
2017-05-04T00:22:23.250Z,19.97
2017-05-04T00:24:50.016Z,20.95
2017-05-04T00:27:17.301Z,23.17
2017-05-04T00:29:44.064Z,20.07
2017-05-04T00:32:11.157Z,21.28
2017-05-04T00:34:38.280Z,21.43
2017-05-04T00:37:05.028Z,18.77
2017-05-04T00:39:31.801Z,20.17
2017-05-04T00:41:59.538Z,20.65
2017-05-04T00:44:26.302Z,20.50
2017-05-04T00:46:53.065Z,18.43
2017-05-04T00:49:30.930Z,19.08
2017-05-04T00:51:57.686Z,18.28
2017-05-04T00:54:24.449Z,18.80
2017-05-04T00:56:51.480Z,18.63
2017-05-04T00:59:18.250Z,19.15
2017-05-04T01:01:45.012Z,17.67
2017-05-04T01:04:12.372Z,18.12
2017-05-04T01:06:39.137Z,16.05
2017-05-04T01:09:05.885Z,16.78
2017-05-04T01:11:33.202Z,14.65
2017-05-04T01:14:00.468Z,17.00
2017-05-04T01:16:27.216Z,15.38
2017-05-04T01:18:54.269Z,14.98
2017-05-04T01:21:21.031Z,15.30
2017-05-04T01:23:48.222Z,15.02
2017-05-04T01:26:15.376Z,12.98
2017-05-04T01:28:42.135Z,11.73
2017-05-04T01:31:09.376Z,11.35
2017-05-04T01:33:36.883Z,11.22
2017-05-04T01:36:04.424Z,11.33
2017-05-04T01:38:32.053Z,11.55
2017-05-04T01:40:59.473Z,11.92
2017-05-04T01:43:26.242Z,11.18
2017-05-04T01:45:53.528Z,9.95
2017-05-04T01:48:20.670Z,7.93
2017-05-04T01:50:47.925Z,8.85
2017-05-04T01:53:14.681Z,8.97
2017-05-04T01:55:41.716Z,7.73
2017-05-04T01:58:08.459Z,9.20
2017-05-04T02:00:35.572Z,7.98
2017-05-04T02:03:03.098Z,7.78
2017-05-04T02:05:29.847Z,8.78
2017-05-04T02:07:56.600Z,6.92
2017-05-04T02:10:23.651Z,7.20
2017-05-04T02:12:50.404Z,6.43
2017-05-04T02:15:17.161Z,6.65
2017-05-04T02:17:44.284Z,7.02
2017-05-04T02:20:11.033Z,6.02
2017-05-04T02:22:37.781Z,6.77
2017-05-04T02:25:04.825Z,6.47
2017-05-04T02:27:31.573Z,6.67
2017-05-04T02:29:58.321Z,6.28
2017-05-04T02:32:25.337Z,6.67
2017-05-04T02:34:52.088Z,6.50
2017-05-04T02:37:18.829Z,6.75
2017-05-04T02:39:45.900Z,6.40
2017-05-04T02:42:12.636Z,6.77
2017-05-04T02:44:39.383Z,6.53
2017-05-04T02:47:06.415Z,7.47
2017-05-04T02:49:33.169Z,6.58
2017-05-04T02:51:59.925Z,6.10
2017-05-04T02:54:26.968Z,6.98
2017-05-04T02:56:53.717Z,6.28
2017-05-04T02:59:20.713Z,6.20
2017-05-04T03:01:48.073Z,6.77
2017-05-04T03:04:15.240Z,5.80
2017-05-04T03:06:41.980Z,6.98
2017-05-04T03:09:09.012Z,6.35
2017-05-04T03:11:35.771Z,5.83
2017-05-04T03:14:02.522Z,6.73
2017-05-04T03:16:29.852Z,6.67
2017-05-04T03:18:56.593Z,6.68
2017-05-04T03:21:23.341Z,7.92
2017-05-04T03:23:51.243Z,6.83
2017-05-04T03:26:18.015Z,7.40
2017-05-04T03:28:44.761Z,5.63
2017-05-04T03:31:11.794Z,6.78
2017-05-04T03:33:38.544Z,6.23
2017-05-04T03:36:05.646Z,6.28
2017-05-04T03:38:32.908Z,7.32
2017-05-04T03:41:00.392Z,7.43
2017-05-04T03:43:27.140Z,6.98
2017-05-04T03:45:54.240Z,7.27
2017-05-04T03:48:20.988Z,7.03
2017-05-04T03:50:47.737Z,6.42
2017-05-04T03:53:15.085Z,7.88
2017-05-04T03:55:41.829Z,6.82
2017-05-04T03:58:08.576Z,6.47
2017-05-04T04:00:35.627Z,8.73
2017-05-04T04:03:02.634Z,6.62
2017-05-04T04:05:29.381Z,6.50
2017-05-04T04:07:56.394Z,7.75
2017-05-04T04:10:23.137Z,6.23
2017-05-04T04:12:49.886Z,6.50
2017-05-04T04:15:16.930Z,6.00
2017-05-04T04:17:43.698Z,6.98
2017-05-04T04:20:10.453Z,6.30
2017-05-04T04:22:37.471Z,6.08
2017-05-04T04:25:04.213Z,6.20
2017-05-04T04:27:31.337Z,6.20
2017-05-04T04:29:58.611Z,5.75
2017-05-04T04:32:25.360Z,6.15
2017-05-04T04:34:52.114Z,5.82
2017-05-04T04:37:20.095Z,6.38
2017-05-04T04:39:46.843Z,5.87
2017-05-04T04:42:13.591Z,5.52
2017-05-04T04:44:40.912Z,6.42
2017-05-04T04:47:07.667Z,7.05
2017-05-04T04:49:34.819Z,5.38
2017-05-04T04:52:02.947Z,5.72
2017-05-04T04:54:29.699Z,5.80
2017-05-04T04:56:56.453Z,6.40
2017-05-04T04:59:23.493Z,6.58
2017-05-04T05:01:50.244Z,6.35
2017-05-04T05:04:16.998Z,5.97
2017-05-04T05:06:44.521Z,5.30
2017-05-04T05:09:11.600Z,5.20
2017-05-04T05:11:39.189Z,5.90
2017-05-04T05:14:06.471Z,5.58
2017-05-04T05:16:33.216Z,5.50
2017-05-04T05:19:00.785Z,5.23
2017-05-04T05:21:28.072Z,6.37
2017-05-04T05:23:54.839Z,6.10
2017-05-04T05:26:21.592Z,5.47
2017-05-04T05:28:49.410Z,4.42
2017-05-04T05:31:16.413Z,5.35
2017-05-04T05:33:43.166Z,5.27
2017-05-04T05:36:10.323Z,5.75
2017-05-04T05:38:37.076Z,5.58
2017-05-04T05:41:03.816Z,5.60
2017-05-04T05:43:31.086Z,5.15
2017-05-04T05:45:57.833Z,5.70
2017-05-04T05:48:24.576Z,5.40
2017-05-04T05:50:51.591Z,5.80
2017-05-04T05:53:18.336Z,5.73
2017-05-04T05:55:45.085Z,5.02
2017-05-04T05:58:12.114Z,5.00
2017-05-04T06:00:38.872Z,5.97
2017-05-04T06:03:05.611Z,5.22
2017-05-04T06:05:32.649Z,4.27
2017-05-04T06:08:00.241Z,4.98
2017-05-04T06:10:26.993Z,5.27
2017-05-04T06:12:54.792Z,4.97
2017-05-04T06:15:22.893Z,5.75
2017-05-04T06:17:50.133Z,4.50
2017-05-04T06:20:17.787Z,4.62
2017-05-04T06:22:44.533Z,5.95
2017-05-04T06:25:11.267Z,4.72
2017-05-04T06:27:38.308Z,6.75
2017-05-04T06:30:05.060Z,6.20
2017-05-04T06:32:31.822Z,5.25
2017-05-04T06:34:59.257Z,4.77
2017-05-04T06:37:26.013Z,4.45
2017-05-04T06:39:53.278Z,3.98
2017-05-04T06:42:20.877Z,5.02
2017-05-04T06:44:47.628Z,5.10
2017-05-04T06:47:14.367Z,5.43
2017-05-04T06:49:41.409Z,4.93
2017-05-04T06:52:08.600Z,5.30
2017-05-04T06:54:35.358Z,5.75
2017-05-04T06:57:02.555Z,5.97
2017-05-04T06:59:29.319Z,5.40
2017-05-04T07:01:56.110Z,4.88
2017-05-04T07:04:23.372Z,5.88
2017-05-04T07:06:50.125Z,4.78
2017-05-04T07:09:17.187Z,6.07
2017-05-04T07:11:44.253Z,4.72
2017-05-04T07:14:11.406Z,5.58
2017-05-04T07:16:38.550Z,5.97
2017-05-04T07:19:05.571Z,5.90
2017-05-04T07:21:32.324Z,6.17
2017-05-04T07:23:59.081Z,6.48
2017-05-04T07:26:26.122Z,7.78
2017-05-04T07:28:53.299Z,6.57
2017-05-04T07:34:22.528Z,7.48
2017-05-04T07:36:49.280Z,6.97
2017-05-04T07:39:16.037Z,8.53
2017-05-04T07:41:43.065Z,6.70
2017-05-04T07:44:09.826Z,8.15
2017-05-04T07:46:36.585Z,7.10
2017-05-04T07:49:03.625Z,6.97
2017-05-04T07:51:30.757Z,7.08
2017-05-04T07:53:57.499Z,7.05
2017-05-04T07:56:25.048Z,8.48
2017-05-04T07:58:51.789Z,8.95
2017-05-04T08:01:19.424Z,7.62
2017-05-04T08:03:46.795Z,7.68
2017-05-04T08:06:14.369Z,13.80
2017-05-04T08:08:41.121Z,10.95
2017-05-04T08:11:08.240Z,9.63
2017-05-04T08:13:34.997Z,10.68
2017-05-04T08:16:01.741Z,9.87
2017-05-04T08:18:28.770Z,12.10
2017-05-04T08:20:55.533Z,15.05
2017-05-04T08:23:22.288Z,12.20
2017-05-04T08:25:49.381Z,13.43
2017-05-04T08:28:16.140Z,11.90
2017-05-04T08:30:42.905Z,11.65
2017-05-04T08:33:09.974Z,11.00
2017-05-04T08:35:36.729Z,10.05
2017-05-04T08:38:03.484Z,14.48
2017-05-04T08:40:37.343Z,10.08
2017-05-04T08:43:04.135Z,9.07
2017-05-04T08:45:30.893Z,10.58
2017-05-04T08:47:58.032Z,11.88
2017-05-04T08:50:24.797Z,9.10
2017-05-04T08:52:51.551Z,9.82
2017-05-04T08:55:19.471Z,8.77
2017-05-04T08:57:46.550Z,8.23
2017-05-04T09:00:13.309Z,9.63
2017-05-04T09:02:40.730Z,11.45
2017-05-04T09:05:07.513Z,10.05
2017-05-04T09:07:34.365Z,7.85
2017-05-04T09:10:01.405Z,9.18
2017-05-04T09:12:32.024Z,8.62
2017-05-04T09:14:58.782Z,8.67
2017-05-04T09:17:26.081Z,9.68
2017-05-04T09:19:52.850Z,10.27
2017-05-04T09:22:19.624Z,10.42
2017-05-04T09:24:46.818Z,11.25
2017-05-04T09:27:13.571Z,10.22
2017-05-04T09:29:40.412Z,9.65
2017-05-04T09:32:07.615Z,10.65
2017-05-04T09:34:34.378Z,12.12
2017-05-04T09:37:02.069Z,10.73
2017-05-04T09:39:30.143Z,11.20
2017-05-04T09:41:58.765Z,11.88
2017-05-04T09:44:26.149Z,10.15
2017-05-04T09:46:54.249Z,11.08
2017-05-04T09:49:21.849Z,10.35
2017-05-04T09:51:48.644Z,11.12
2017-05-04T09:54:15.768Z,11.25
2017-05-04T09:56:42.536Z,12.87
2017-05-04T09:59:09.309Z,12.00
2017-05-04T10:01:36.611Z,13.77
2017-05-04T10:04:03.369Z,11.93
2017-05-04T10:06:30.129Z,13.10
2017-05-04T10:08:57.157Z,12.55
2017-05-04T10:11:23.926Z,12.70
2017-05-04T10:13:50.693Z,11.55
2017-05-04T10:16:17.722Z,12.12
2017-05-04T10:18:44.485Z,12.23
2017-05-04T10:21:11.238Z,12.73
2017-05-04T10:23:38.621Z,12.37
2017-05-04T10:26:06.568Z,12.52
2017-05-04T10:28:33.321Z,13.25
2017-05-04T10:31:00.554Z,12.03
2017-05-04T10:33:27.308Z,12.62
2017-05-04T10:35:54.425Z,12.78
2017-05-04T10:38:21.624Z,12.58
2017-05-04T10:40:48.379Z,13.75
2017-05-04T10:43:15.132Z,12.95
2017-05-04T10:45:42.168Z,12.02
2017-05-04T10:48:08.932Z,11.25
2017-05-04T10:50:35.681Z,11.43
2017-05-04T10:53:02.705Z,9.05
2017-05-04T10:55:29.451Z,9.62
2017-05-04T10:57:56.195Z,9.48
2017-05-04T11:00:23.340Z,11.03
2017-05-04T11:02:50.105Z,12.72
2017-05-04T11:05:16.858Z,10.75
2017-05-04T11:07:43.950Z,9.88
2017-05-04T11:10:10.706Z,9.40
2017-05-04T11:12:38.506Z,9.93
2017-05-04T11:15:05.560Z,11.48
2017-05-04T11:17:32.313Z,9.55
2017-05-04T11:19:59.393Z,10.08
2017-05-04T11:22:27.346Z,9.12
2017-05-04T11:24:54.832Z,9.10
2017-05-04T11:27:21.593Z,9.88
2017-05-04T11:29:48.624Z,9.57
2017-05-04T11:32:15.368Z,9.57
2017-05-04T11:34:42.107Z,7.68
2017-05-04T11:37:09.136Z,9.90
2017-05-04T11:39:35.897Z,11.10
2017-05-04T11:42:02.713Z,10.00
2017-05-04T11:44:29.761Z,8.98
2017-05-04T11:46:56.857Z,9.18
2017-05-04T11:49:23.605Z,8.28
2017-05-04T11:51:51.281Z,7.55
2017-05-04T11:54:18.033Z,8.28
2017-05-04T11:56:44.785Z,6.28
2017-05-04T11:59:11.809Z,7.48
2017-05-04T12:01:38.557Z,6.92
2017-05-04T12:04:06.596Z,7.33
2017-05-04T12:06:33.821Z,8.18
2017-05-04T12:09:00.569Z,8.58
2017-05-04T12:11:27.321Z,7.48
2017-05-04T12:13:54.651Z,7.47
2017-05-04T12:16:21.640Z,7.38
2017-05-04T12:18:48.393Z,7.88
2017-05-04T12:21:15.447Z,7.60
2017-05-04T12:23:42.509Z,6.57
2017-05-04T12:26:09.687Z,7.92
2017-05-04T12:28:37.423Z,7.70
2017-05-04T12:31:04.184Z,8.45
2017-05-04T12:33:30.950Z,7.47
2017-05-04T12:35:58.734Z,8.27
2017-05-04T12:38:26.418Z,7.25
2017-05-04T12:40:53.787Z,6.85
2017-05-04T12:43:20.819Z,7.57
2017-05-04T12:45:47.560Z,7.88
2017-05-04T12:48:14.313Z,7.15
2017-05-04T12:50:41.357Z,8.52
2017-05-04T12:53:08.105Z,7.30
2017-05-04T12:55:34.857Z,7.52
2017-05-04T12:58:02.296Z,8.00
2017-05-04T13:00:29.033Z,8.13
2017-05-04T13:02:55.779Z,7.70
2017-05-04T13:05:22.944Z,7.53
2017-05-04T13:07:49.696Z,7.60
2017-05-04T13:10:16.443Z,8.28
2017-05-04T13:12:43.486Z,8.18
2017-05-04T13:15:10.245Z,7.50
2017-05-04T13:17:37.326Z,6.58
2017-05-04T13:20:05.442Z,6.72
2017-05-04T13:22:32.229Z,7.23
2017-05-04T13:24:58.991Z,7.15
2017-05-04T13:27:26.224Z,6.77
2017-05-04T13:29:52.972Z,5.85
2017-05-04T13:32:19.704Z,5.35
2017-05-04T13:34:47.244Z,6.53
2017-05-04T13:37:14.130Z,4.78
2017-05-04T13:39:40.872Z,7.03
2017-05-04T13:42:08.309Z,7.47
2017-05-04T13:44:35.068Z,7.17
2017-05-04T13:47:01.814Z,7.40
2017-05-04T13:49:28.856Z,6.93
2017-05-04T13:51:55.840Z,6.47
2017-05-04T13:54:22.580Z,7.65
2017-05-04T13:56:49.604Z,6.98
2017-05-04T13:59:16.358Z,5.93
2017-05-04T14:01:43.568Z,6.48
2017-05-04T14:04:10.591Z,7.33
2017-05-04T14:06:37.340Z,7.40
2017-05-04T14:09:04.090Z,7.98
2017-05-04T14:11:31.733Z,6.58
2017-05-04T14:13:58.476Z,8.23
2017-05-04T14:16:25.220Z,6.68
2017-05-04T14:18:52.996Z,8.18
2017-05-04T14:21:19.735Z,6.12
2017-05-04T14:23:46.478Z,6.95
2017-05-04T14:26:13.496Z,7.07
2017-05-04T14:28:40.244Z,6.82
2017-05-04T14:31:06.996Z,5.95
2017-05-04T14:33:34.019Z,6.33
2017-05-04T14:36:01.255Z,5.32
2017-05-04T14:38:28.014Z,5.37
2017-05-04T14:40:55.704Z,4.72
2017-05-04T14:43:23.152Z,4.90
2017-05-04T14:45:49.891Z,5.02
2017-05-04T14:48:17.244Z,5.80
2017-05-04T14:50:44.004Z,4.12
2017-05-04T14:53:10.757Z,4.55
2017-05-04T14:55:38.085Z,3.72
2017-05-04T14:58:04.841Z,5.68
2017-05-04T15:00:31.593Z,5.15
2017-05-04T15:02:58.755Z,5.05
2017-05-04T15:05:25.509Z,5.52
2017-05-04T15:07:52.505Z,5.17
2017-05-04T15:10:19.573Z,5.03
2017-05-04T15:12:46.329Z,4.80
2017-05-04T15:15:13.088Z,5.58
2017-05-04T15:17:40.606Z,6.12
2017-05-04T15:20:07.357Z,5.03
2017-05-04T15:22:34.107Z,6.02
2017-05-04T15:25:01.384Z,5.83
2017-05-04T15:27:28.529Z,6.08
2017-05-04T15:29:55.681Z,6.28
2017-05-04T15:32:22.716Z,4.78
2017-05-04T15:34:50.137Z,6.10
2017-05-04T15:37:16.879Z,5.25
2017-05-04T15:39:44.136Z,5.38
2017-05-04T15:42:10.880Z,6.75
2017-05-04T15:44:37.616Z,5.95
2017-05-04T15:47:04.644Z,6.63
2017-05-04T15:49:31.384Z,6.07
2017-05-04T15:51:58.144Z,7.10
2017-05-04T15:54:25.463Z,5.38
2017-05-04T15:56:52.211Z,5.13
2017-05-04T15:59:18.965Z,5.78
2017-05-04T16:01:46.182Z,6.62
2017-05-04T16:04:12.943Z,6.77
2017-05-04T16:06:39.944Z,6.00
2017-05-04T16:09:06.985Z,5.98
2017-05-04T16:11:33.738Z,5.90
2017-05-04T16:14:00.476Z,5.82
2017-05-04T16:16:27.501Z,6.40
2017-05-04T16:18:54.248Z,5.70
2017-05-04T16:21:20.991Z,4.88
2017-05-04T16:23:48.079Z,5.67
2017-05-04T16:26:14.830Z,5.22
2017-05-04T16:28:41.876Z,5.38
2017-05-04T16:31:08.907Z,5.18
2017-05-04T16:33:35.648Z,4.87
2017-05-04T16:36:02.390Z,6.08
2017-05-04T16:38:29.408Z,5.52
2017-05-04T16:40:56.149Z,4.78
2017-05-04T16:43:22.905Z,4.47
2017-05-04T16:45:50.069Z,4.98
2017-05-04T16:48:16.820Z,5.08
2017-05-04T16:50:43.564Z,5.45
2017-05-04T16:53:10.880Z,4.90
2017-05-04T16:55:37.870Z,4.75
2017-05-04T16:58:04.609Z,4.52
2017-05-04T17:00:31.725Z,4.27
2017-05-04T17:02:58.473Z,4.52
2017-05-04T17:05:25.216Z,4.25
2017-05-04T17:07:52.561Z,4.98
2017-05-04T17:10:19.305Z,6.22
2017-05-04T17:12:46.052Z,5.10
2017-05-04T17:15:13.392Z,5.12
2017-05-04T17:17:40.881Z,4.65
2017-05-04T17:20:08.147Z,4.87
2017-05-04T17:22:35.184Z,4.47
2017-05-04T17:25:01.937Z,3.70
2017-05-04T17:27:28.730Z,4.03
2017-05-04T17:29:56.992Z,4.27
2017-05-04T17:32:23.747Z,4.53
2017-05-04T17:34:50.516Z,3.68
2017-05-04T17:37:17.543Z,3.88
2017-05-04T17:39:44.305Z,3.48
2017-05-04T17:42:11.051Z,4.07
2017-05-04T17:44:38.084Z,3.93
2017-05-04T17:47:04.845Z,3.72
2017-05-04T17:49:31.598Z,3.37
2017-05-04T17:51:58.824Z,4.23
2017-05-04T17:54:26.771Z,3.32
2017-05-04T17:56:53.949Z,3.60
2017-05-04T17:59:21.049Z,3.25
2017-05-04T18:01:48.524Z,3.92
2017-05-04T18:04:15.914Z,3.17
2017-05-04T18:06:43.381Z,3.50
2017-05-04T18:09:10.927Z,3.40
2017-05-04T18:11:38.146Z,3.27
2017-05-04T18:14:06.000Z,3.37
2017-05-04T18:16:32.753Z,3.92
2017-05-04T18:18:59.505Z,5.82
2017-05-04T18:21:26.900Z,4.90
2017-05-04T18:23:53.702Z,4.73
2017-05-04T18:26:20.443Z,5.78
2017-05-04T18:28:48.918Z,4.18
2017-05-04T18:31:15.917Z,5.42
2017-05-04T18:33:42.655Z,4.90
2017-05-04T18:36:09.700Z,6.07
2017-05-04T18:38:36.689Z,4.80
2017-05-04T18:41:03.429Z,5.92
2017-05-04T18:43:30.465Z,6.70
2017-05-04T18:45:57.212Z,6.80
2017-05-04T18:48:23.956Z,6.55
2017-05-04T18:50:51.371Z,7.90
2017-05-04T18:53:18.116Z,7.37
2017-05-04T18:55:45.729Z,8.18
2017-05-04T18:58:13.071Z,9.62
2017-05-04T19:03:11.941Z,9.55
2017-05-04T19:05:40.373Z,8.87
2017-05-04T19:08:08.181Z,11.65
2017-05-04T19:10:34.946Z,13.13
2017-05-04T19:13:05.452Z,13.38
2017-05-04T19:15:32.567Z,12.92
2017-05-04T19:17:59.329Z,12.00
2017-05-04T19:20:26.865Z,12.07
2017-05-04T19:22:53.607Z,14.45
2017-05-04T19:25:20.368Z,13.50
2017-05-04T19:27:47.447Z,12.58
2017-05-04T19:30:14.205Z,12.90
2017-05-04T19:32:41.200Z,11.98
2017-05-04T19:35:09.709Z,12.78
2017-05-04T19:37:37.396Z,14.10
2017-05-04T19:40:04.863Z,12.33
2017-05-04T19:42:33.263Z,14.10
2017-05-04T19:45:00.020Z,15.25
2017-05-04T19:47:26.785Z,14.42
2017-05-04T19:49:53.908Z,14.30
2017-05-04T19:52:21.287Z,14.77
2017-05-04T19:54:48.054Z,15.10
2017-05-04T19:57:15.252Z,14.72
2017-05-04T19:59:42.007Z,16.42
2017-05-04T20:02:08.765Z,14.08
2017-05-04T20:04:36.028Z,14.58
2017-05-04T20:07:02.795Z,16.90
2017-05-04T20:09:29.556Z,13.82
2017-05-04T20:11:58.232Z,12.35
2017-05-04T20:14:26.421Z,13.63
2017-05-04T20:16:53.185Z,12.25
2017-05-04T20:19:20.819Z,7.90
2017-05-04T20:21:47.604Z,6.63
2017-05-04T20:24:14.373Z,5.85
2017-05-04T20:26:41.888Z,5.90
2017-05-04T20:29:08.641Z,5.33
2017-05-04T20:31:35.779Z,4.60
2017-05-04T20:34:02.934Z,4.98
2017-05-04T20:36:29.689Z,4.50
2017-05-04T20:38:56.439Z,4.87
2017-05-04T20:41:23.494Z,3.18
2017-05-04T20:43:50.244Z,4.53
2017-05-04T20:46:16.985Z,4.02
2017-05-04T20:48:44.140Z,4.28
2017-05-04T20:51:10.883Z,4.13
2017-05-04T20:53:37.650Z,4.23
2017-05-04T20:56:04.677Z,4.70
2017-05-04T20:58:31.462Z,5.13
2017-05-04T21:00:58.212Z,4.72
2017-05-04T21:03:25.853Z,6.37
2017-05-04T21:05:52.596Z,7.33
2017-05-04T21:08:19.335Z,6.93
2017-05-04T21:10:46.657Z,8.33
2017-05-04T21:13:13.409Z,7.40
2017-05-04T21:15:40.448Z,9.27
2017-05-04T21:18:08.177Z,8.53
2017-05-04T21:20:34.929Z,8.78
2017-05-04T21:23:01.693Z,9.32
2017-05-04T21:25:28.821Z,10.28
2017-05-04T21:27:55.585Z,10.35
2017-05-04T21:30:22.327Z,9.60
2017-05-04T21:32:49.354Z,9.30
2017-05-04T21:35:16.113Z,8.95
2017-05-04T21:37:42.870Z,9.82
2017-05-04T21:40:09.909Z,10.80
2017-05-04T21:42:36.678Z,11.97
2017-05-04T21:45:03.421Z,11.38
2017-05-04T21:47:30.905Z,11.68
2017-05-04T21:49:57.662Z,10.47
2017-05-04T21:52:24.411Z,13.38
2017-05-04T21:54:51.641Z,12.47
2017-05-04T21:57:18.406Z,13.58
2017-05-04T21:59:45.160Z,13.12
2017-05-04T22:02:12.910Z,12.03
2017-05-04T22:04:39.668Z,15.67
2017-05-04T22:07:06.434Z,13.97
2017-05-04T22:09:33.818Z,12.67
2017-05-04T22:12:00.572Z,12.75
2017-05-04T22:14:27.342Z,14.02
2017-05-04T22:16:54.509Z,16.32
2017-05-04T22:19:21.264Z,15.23
2017-05-04T22:21:48.015Z,15.43
2017-05-04T22:24:15.101Z,15.60
2017-05-04T22:26:41.874Z,12.02
2017-05-04T22:29:08.620Z,13.73
2017-05-04T22:31:35.744Z,15.25
2017-05-04T22:34:02.504Z,13.90
2017-05-04T22:36:29.704Z,14.92
2017-05-04T22:38:56.731Z,15.07
2017-05-04T22:41:23.486Z,13.70
2017-05-04T22:43:50.240Z,14.45
2017-05-04T22:46:17.473Z,14.77
2017-05-04T22:48:44.243Z,14.37
2017-05-04T22:51:11.010Z,14.87
2017-05-04T22:53:38.301Z,15.07
2017-05-04T22:56:05.060Z,15.67
2017-05-04T22:58:31.812Z,15.00
2017-05-04T23:00:59.128Z,16.80
2017-05-04T23:03:25.890Z,16.50
2017-05-04T23:05:52.658Z,16.08
2017-05-04T23:08:19.691Z,16.03
2017-05-04T23:10:46.435Z,16.60
2017-05-04T23:13:13.188Z,16.68
2017-05-04T23:15:40.290Z,15.18
2017-05-04T23:18:07.035Z,14.88
2017-05-04T23:20:33.797Z,15.18
2017-05-04T23:23:01.117Z,14.95
2017-05-04T23:25:27.865Z,14.85
2017-05-04T23:27:54.621Z,14.00
2017-05-04T23:30:21.945Z,14.65
2017-05-04T23:32:48.699Z,15.02
2017-05-04T23:35:15.465Z,16.65
2017-05-04T23:37:42.746Z,16.60
2017-05-04T23:40:09.506Z,15.03
2017-05-04T23:42:36.789Z,16.58
2017-05-04T23:45:04.130Z,15.70
2017-05-04T23:47:30.890Z,16.03
2017-05-04T23:49:57.646Z,18.07
2017-05-04T23:52:24.812Z,17.47
2017-05-04T23:54:51.564Z,18.03
2017-05-04T23:57:18.317Z,17.10
2017-05-04T23:59:45.497Z,17.40
